Orbital elements of COSMOS 2251 DEB
| Launched | 15 June 1993 |
| Flight ended | – |
| Launch site | Plesetsk Missile and Space Complex, Russia |
| Owner | Commonwealth of Independent States (former USSR) |
| NORAD ID | 34317 |
| Date fetched |
Epoch osculation |
Inc. [°] |
Ecc. | RA asc node [hr] |
Arg Peri. [°] |
Mean anom [°] |
Mean motion [rev/day] |
Abs. mag |
| Date fetched |
Epoch osculation |
Inc. [°] |
Ecc. | RA asc node [hr] |
Arg Peri. [°] |
Mean anom [°] |
Mean motion [rev/day] |
Abs. mag |
| 2026 May 03 17:57 | 2026 Apr 30 14:04:43 | 73.9231 | 0.03349 | 11.1422 | 130.6941 | 20.3966 | 13.65330 | – |
| 2026 May 02 17:57 | 2026 Apr 30 14:04:43 | 73.9231 | 0.03349 | 11.1422 | 130.6941 | 20.3966 | 13.65330 | – |
| 2026 May 01 17:56 | 2026 Apr 30 14:04:43 | 73.9231 | 0.03349 | 11.1422 | 130.6941 | 20.3966 | 13.65330 | – |
| 2026 Apr 30 17:56 | 2026 Apr 30 14:04:43 | 73.9231 | 0.03349 | 11.1422 | 130.6941 | 20.3966 | 13.65330 | – |
| 2026 Apr 29 17:57 | 2026 Apr 23 03:53:33 | 73.9241 | 0.03354 | 11.9571 | 144.3018 | 20.3966 | 13.65330 | – |
| 2026 Apr 28 17:56 | 2026 Apr 23 03:53:33 | 73.9241 | 0.03354 | 11.9571 | 144.3018 | 20.3966 | 13.65330 | – |
| 2026 Apr 27 17:58 | 2026 Apr 23 03:53:33 | 73.9241 | 0.03354 | 11.9571 | 144.3018 | 20.3966 | 13.65330 | – |
| 2026 Apr 26 17:58 | 2026 Apr 23 03:53:33 | 73.9241 | 0.03354 | 11.9571 | 144.3018 | 20.3966 | 13.65330 | – |
| 2026 Apr 25 17:58 | 2026 Apr 23 03:53:33 | 73.9241 | 0.03354 | 11.9571 | 144.3018 | 20.3966 | 13.65330 | – |
| 2026 Apr 24 17:59 | 2026 Apr 23 03:53:33 | 73.9241 | 0.03354 | 11.9571 | 144.3018 | 20.3966 | 13.65330 | – |
| 2026 Apr 23 17:57 | 2026 Apr 19 04:56:25 | 73.9243 | 0.03356 | 12.3914 | 151.5455 | 20.3966 | 13.65330 | – |
| 2026 Apr 22 17:57 | 2026 Apr 19 04:56:25 | 73.9243 | 0.03356 | 12.3914 | 151.5455 | 20.3966 | 13.65330 | – |
| 2026 Apr 21 17:57 | 2026 Apr 19 04:56:25 | 73.9243 | 0.03356 | 12.3914 | 151.5455 | 20.3966 | 13.65330 | – |
| 2026 Apr 20 17:57 | 2026 Apr 19 04:56:25 | 73.9243 | 0.03356 | 12.3914 | 151.5455 | 20.3966 | 13.65330 | – |
| 2026 Apr 19 17:58 | 2026 Apr 19 04:56:25 | 73.9243 | 0.03356 | 12.3914 | 151.5455 | 20.3966 | 13.65330 | – |
| 2026 Apr 18 17:56 | 2026 Apr 12 12:51:52 | 73.9246 | 0.03360 | 13.1235 | 163.7391 | 20.3966 | 13.65330 | – |
| 2026 Apr 16 17:57 | 2026 Apr 12 12:51:52 | 73.9246 | 0.03360 | 13.1235 | 163.7391 | 20.3966 | 13.65330 | – |
| 2026 Apr 14 17:57 | 2026 Apr 12 12:51:52 | 73.9246 | 0.03360 | 13.1235 | 163.7391 | 20.3966 | 13.65330 | – |
| 2026 Apr 13 17:57 | 2026 Apr 12 12:51:52 | 73.9246 | 0.03360 | 13.1235 | 163.7391 | 20.3966 | 13.65330 | – |
| 2026 Apr 12 17:57 | 2026 Apr 08 06:55:19 | 73.9245 | 0.03362 | 13.5898 | 171.4983 | 20.3966 | 13.65330 | – |
| 2026 Apr 11 17:57 | 2026 Apr 08 06:55:19 | 73.9245 | 0.03362 | 13.5898 | 171.4983 | 20.3966 | 13.65330 | – |
| 2026 Apr 10 17:58 | 2026 Apr 08 06:55:19 | 73.9245 | 0.03362 | 13.5898 | 171.4983 | 20.3966 | 13.65330 | – |
| 2026 Apr 09 18:01 | 2026 Apr 08 06:55:19 | 73.9245 | 0.03362 | 13.5898 | 171.4983 | 20.3966 | 13.65330 | – |
| 2026 Apr 08 17:57 | 2026 Apr 08 06:55:19 | 73.9245 | 0.03362 | 13.5898 | 171.4983 | 20.3966 | 13.65330 | – |
| 2026 Apr 07 17:57 | 2026 Apr 02 02:08:19 | 73.9241 | 0.03363 | 14.2703 | 182.8155 | 20.3966 | 13.65330 | – |
| 2026 Apr 06 17:57 | 2026 Apr 02 02:08:19 | 73.9241 | 0.03363 | 14.2703 | 182.8155 | 20.3966 | 13.65330 | – |